Terminal Aerodrome Forecast
Issued by NWS Shreveport, LA

Home | Current Version | Previous Version | Text Only | Print | Product List | Glossary On
Versions: 1 2 3 4 5 6 7 8 9 10 11 12 13 14 15 16 17 18 19
000
FTUS44 KSHV 062025 AAA
TAFSHV
TAF AMD
KSHV 062025Z 0620/0718 13010KT P6SM FEW050 SCT060 SCT120
     FM062100 16011KT P6SM VCSH BKN050 BKN100
     FM070100 15006KT P6SM BKN050 OVC080
     FM071000 14006KT 5SM BR BKN025 BKN035
     FM071500 16009KT P6SM OVC015=

USA.gov is the U.S. government's official web portal to all federal, state and local government web resources and services.